sensor_id;sensor_type;location;lat;lon;timestamp;pressure;altitude;pressure_sealevel;temperature;humidity
82887;BME280;72660;51.258;-2.200;2024-01-10T00:00:04;102212.86;;;-0.63;50.98
82887;BME280;72660;51.258;-2.200;2024-01-10T00:02:29;102211.61;;;-0.65;50.52
82887;BME280;72660;51.258;-2.200;2024-01-10T00:04:54;102205.65;;;-0.25;50.28
82887;BME280;72660;51.258;-2.200;2024-01-10T00:07:20;102198.08;;;-0.54;50.81
82887;BME280;72660;51.258;-2.200;2024-01-10T00:09:45;102202.41;;;0.11;49.82
82887;BME280;72660;51.258;-2.200;2024-01-10T00:12:11;102208.15;;;-1.28;51.94
82887;BME280;72660;51.258;-2.200;2024-01-10T00:14:36;102206.93;;;-0.14;50.01
82887;BME280;72660;51.258;-2.200;2024-01-10T00:17:02;102203.83;;;-0.38;50.87
82887;BME280;72660;51.258;-2.200;2024-01-10T00:19:27;102203.15;;;-0.14;50.31
82887;BME280;72660;51.258;-2.200;2024-01-10T00:21:53;102202.56;;;-0.13;50.15
82887;BME280;72660;51.258;-2.200;2024-01-10T00:24:18;102198.93;;;0.13;49.99
82887;BME280;72660;51.258;-2.200;2024-01-10T00:26:44;102199.13;;;-0.39;51.09
82887;BME280;72660;51.258;-2.200;2024-01-10T00:29:09;102197.29;;;-0.12;50.69
82887;BME280;72660;51.258;-2.200;2024-01-10T00:31:35;102201.93;;;-1.44;53.23
82887;BME280;72660;51.258;-2.200;2024-01-10T00:34:01;102193.49;;;-0.88;51.94
82887;BME280;72660;51.258;-2.200;2024-01-10T00:36:26;102197.88;;;-0.57;51.07
82887;BME280;72660;51.258;-2.200;2024-01-10T00:38:52;102191.51;;;-0.15;50.72
82887;BME280;72660;51.258;-2.200;2024-01-10T00:41:17;102195.13;;;-0.55;51.57
82887;BME280;72660;51.258;-2.200;2024-01-10T00:43:43;102193.02;;;-0.23;51.46
82887;BME280;72660;51.258;-2.200;2024-01-10T00:46:09;102197.07;;;0.23;50.51
82887;BME280;72660;51.258;-2.200;2024-01-10T00:48:34;102196.26;;;-0.50;50.72
82887;BME280;72660;51.258;-2.200;2024-01-10T00:51:00;102196.56;;;-0.36;51.10
82887;BME280;72660;51.258;-2.200;2024-01-10T00:53:25;102185.93;;;-0.18;50.74
82887;BME280;72660;51.258;-2.200;2024-01-10T00:55:50;102189.87;;;-0.49;50.70
82887;BME280;72660;51.258;-2.200;2024-01-10T00:58:16;102187.85;;;-0.27;51.16
82887;BME280;72660;51.258;-2.200;2024-01-10T01:00:42;102187.25;;;-0.38;51.71
82887;BME280;72660;51.258;-2.200;2024-01-10T01:03:07;102181.86;;;-0.67;52.24
82887;BME280;72660;51.258;-2.200;2024-01-10T01:05:33;102190.08;;;-1.38;53.15
82887;BME280;72660;51.258;-2.200;2024-01-10T01:07:58;102185.95;;;-1.53;53.51
82887;BME280;72660;51.258;-2.200;2024-01-10T01:10:24;102180.19;;;0.11;51.05
82887;BME280;72660;51.258;-2.200;2024-01-10T01:12:49;102180.11;;;0.41;49.93
82887;BME280;72660;51.258;-2.200;2024-01-10T01:15:15;102180.10;;;-0.96;52.24
82887;BME280;72660;51.258;-2.200;2024-01-10T01:17:40;102182.26;;;-0.08;51.37
82887;BME280;72660;51.258;-2.200;2024-01-10T01:20:07;102182.61;;;-0.03;51.16
82887;BME280;72660;51.258;-2.200;2024-01-10T01:22:31;102181.22;;;-0.43;51.35
82887;BME280;72660;51.258;-2.200;2024-01-10T01:24:57;102174.99;;;-0.48;51.81
82887;BME280;72660;51.258;-2.200;2024-01-10T01:27:23;102175.57;;;-0.40;51.89
82887;BME280;72660;51.258;-2.200;2024-01-10T01:29:48;102179.51;;;-1.02;52.47
82887;BME280;72660;51.258;-2.200;2024-01-10T01:32:14;102185.72;;;-1.75;54.03
82887;BME280;72660;51.258;-2.200;2024-01-10T01:34:39;102179.01;;;-0.78;52.91
82887;BME280;72660;51.258;-2.200;2024-01-10T01:37:05;102173.64;;;-0.65;52.59
82887;BME280;72660;51.258;-2.200;2024-01-10T01:39:30;102182.52;;;-1.24;53.51
82887;BME280;72660;51.258;-2.200;2024-01-10T01:41:56;102180.73;;;-1.27;53.80
82887;BME280;72660;51.258;-2.200;2024-01-10T01:44:21;102170.32;;;-1.00;52.95
82887;BME280;72660;51.258;-2.200;2024-01-10T01:46:47;102165.30;;;-0.24;51.52
82887;BME280;72660;51.258;-2.200;2024-01-10T01:49:13;102170.80;;;-1.15;53.58
82887;BME280;72660;51.258;-2.200;2024-01-10T01:51:39;102169.61;;;-0.28;52.00
82887;BME280;72660;51.258;-2.200;2024-01-10T01:54:07;102169.59;;;-0.68;52.89
82887;BME280;72660;51.258;-2.200;2024-01-10T01:56:29;102176.01;;;-1.27;53.99
82887;BME280;72660;51.258;-2.200;2024-01-10T01:58:55;102172.87;;;-1.51;54.46
82887;BME280;72660;51.258;-2.200;2024-01-10T02:01:20;102164.83;;;-1.01;53.31
82887;BME280;72660;51.258;-2.200;2024-01-10T02:03:45;102169.01;;;-1.28;54.21
82887;BME280;72660;51.258;-2.200;2024-01-10T02:06:12;102166.65;;;-1.22;54.21
82887;BME280;72660;51.258;-2.200;2024-01-10T02:08:36;102163.70;;;-1.86;55.27
82887;BME280;72660;51.258;-2.200;2024-01-10T02:11:03;102160.07;;;-0.79;53.47
82887;BME280;72660;51.258;-2.200;2024-01-10T02:13:28;102159.66;;;-0.59;53.07
82887;BME280;72660;51.258;-2.200;2024-01-10T02:15:54;102165.23;;;-1.53;54.61
82887;BME280;72660;51.258;-2.200;2024-01-10T02:18:19;102159.46;;;-1.01;53.60
82887;BME280;72660;51.258;-2.200;2024-01-10T02:20:44;102169.79;;;-1.49;53.87
82887;BME280;72660;51.258;-2.200;2024-01-10T02:23:09;102166.10;;;-2.26;56.15
82887;BME280;72660;51.258;-2.200;2024-01-10T02:25:35;102170.03;;;-1.85;55.94
82887;BME280;72660;51.258;-2.200;2024-01-10T02:28:06;102173.30;;;-1.21;54.50
82887;BME280;72660;51.258;-2.200;2024-01-10T02:30:26;102177.07;;;-1.07;53.86
82887;BME280;72660;51.258;-2.200;2024-01-10T02:32:51;102178.28;;;-1.22;54.21
82887;BME280;72660;51.258;-2.200;2024-01-10T02:35:22;102171.68;;;-0.55;52.96
82887;BME280;72660;51.258;-2.200;2024-01-10T02:37:42;102172.24;;;-1.00;53.30
82887;BME280;72660;51.258;-2.200;2024-01-10T02:40:09;102171.42;;;-0.59;53.06
82887;BME280;72660;51.258;-2.200;2024-01-10T02:42:34;102172.41;;;-1.03;53.05
82887;BME280;72660;51.258;-2.200;2024-01-10T02:44:59;102167.15;;;-0.76;52.46
82887;BME280;72660;51.258;-2.200;2024-01-10T02:47:25;102168.66;;;-0.79;53.22
82887;BME280;72660;51.258;-2.200;2024-01-10T02:49:50;102167.51;;;-0.53;52.91
82887;BME280;72660;51.258;-2.200;2024-01-10T02:52:16;102168.30;;;-0.87;53.27
82887;BME280;72660;51.258;-2.200;2024-01-10T02:54:41;102171.95;;;-1.10;53.89
82887;BME280;72660;51.258;-2.200;2024-01-10T02:57:07;102167.75;;;-0.96;53.66
82887;BME280;72660;51.258;-2.200;2024-01-10T02:59:32;102164.45;;;-1.49;54.13
82887;BME280;72660;51.258;-2.200;2024-01-10T03:01:58;102162.88;;;-1.62;54.94
82887;BME280;72660;51.258;-2.200;2024-01-10T03:04:23;102166.92;;;-1.36;54.51
82887;BME280;72660;51.258;-2.200;2024-01-10T03:06:49;102167.34;;;-1.60;54.74
82887;BME280;72660;51.258;-2.200;2024-01-10T03:09:15;102171.17;;;-1.52;54.67
82887;BME280;72660;51.258;-2.200;2024-01-10T03:11:40;102171.49;;;-1.84;55.59
82887;BME280;72660;51.258;-2.200;2024-01-10T03:14:09;102167.99;;;-0.97;53.84
82887;BME280;72660;51.258;-2.200;2024-01-10T03:16:31;102168.81;;;-1.39;54.60
82887;BME280;72660;51.258;-2.200;2024-01-10T03:18:57;102164.02;;;-1.46;54.71
82887;BME280;72660;51.258;-2.200;2024-01-10T03:21:27;102170.96;;;-1.53;54.70
82887;BME280;72660;51.258;-2.200;2024-01-10T03:23:48;102171.30;;;-1.14;53.99
82887;BME280;72660;51.258;-2.200;2024-01-10T03:26:13;102167.68;;;-1.08;53.80
82887;BME280;72660;51.258;-2.200;2024-01-10T03:28:39;102170.13;;;-1.30;54.28
82887;BME280;72660;51.258;-2.200;2024-01-10T03:31:05;102163.45;;;-0.95;53.57
82887;BME280;72660;51.258;-2.200;2024-01-10T03:33:30;102169.70;;;-0.74;53.44
82887;BME280;72660;51.258;-2.200;2024-01-10T03:35:56;102167.50;;;-0.82;53.50
82887;BME280;72660;51.258;-2.200;2024-01-10T03:38:21;102165.83;;;-0.31;52.30
82887;BME280;72660;51.258;-2.200;2024-01-10T03:40:47;102159.47;;;-0.75;53.09
82887;BME280;72660;51.258;-2.200;2024-01-10T03:43:13;102165.18;;;-0.91;53.24
82887;BME280;72660;51.258;-2.200;2024-01-10T03:45:38;102166.53;;;-0.86;53.31
82887;BME280;72660;51.258;-2.200;2024-01-10T03:48:05;102166.06;;;-0.43;52.57
82887;BME280;72660;51.258;-2.200;2024-01-10T03:50:29;102167.24;;;-1.14;52.84
82887;BME280;72660;51.258;-2.200;2024-01-10T03:52:55;102165.67;;;-0.52;52.25
82887;BME280;72660;51.258;-2.200;2024-01-10T03:55:20;102165.16;;;-0.49;52.16
82887;BME280;72660;51.258;-2.200;2024-01-10T03:57:46;102159.67;;;-0.04;51.28
82887;BME280;72660;51.258;-2.200;2024-01-10T04:00:13;102155.89;;;-0.33;52.03
82887;BME280;72660;51.258;-2.200;2024-01-10T04:02:37;102155.52;;;-0.53;52.29
82887;BME280;72660;51.258;-2.200;2024-01-10T04:05:05;102155.15;;;-0.46;52.82
82887;BME280;72660;51.258;-2.200;2024-01-10T04:07:28;102156.27;;;-1.34;54.59
82887;BME280;72660;51.258;-2.200;2024-01-10T04:09:54;102148.24;;;-1.36;54.45
82887;BME280;72660;51.258;-2.200;2024-01-10T04:12:19;102150.71;;;-0.98;54.07
82887;BME280;72660;51.258;-2.200;2024-01-10T04:14:44;102150.00;;;-0.72;53.67
82887;BME280;72660;51.258;-2.200;2024-01-10T04:17:10;102145.55;;;-0.70;53.66
82887;BME280;72660;51.258;-2.200;2024-01-10T04:19:36;102145.27;;;-0.93;53.69
82887;BME280;72660;51.258;-2.200;2024-01-10T04:22:01;102144.72;;;-0.34;52.86
82887;BME280;72660;51.258;-2.200;2024-01-10T04:24:27;102148.03;;;-0.75;53.52
82887;BME280;72660;51.258;-2.200;2024-01-10T04:26:52;102144.79;;;-0.56;52.85
82887;BME280;72660;51.258;-2.200;2024-01-10T04:29:18;102144.85;;;-0.96;54.18
82887;BME280;72660;51.258;-2.200;2024-01-10T04:31:43;102144.62;;;-0.44;53.16
82887;BME280;72660;51.258;-2.200;2024-01-10T04:34:09;102144.49;;;-0.37;52.74
82887;BME280;72660;51.258;-2.200;2024-01-10T04:36:39;102145.14;;;-0.76;53.59
82887;BME280;72660;51.258;-2.200;2024-01-10T04:39:00;102142.18;;;-0.60;53.22
82887;BME280;72660;51.258;-2.200;2024-01-10T04:41:25;102137.10;;;-0.79;53.41
82887;BME280;72660;51.258;-2.200;2024-01-10T04:43:51;102139.24;;;-0.69;53.72
82887;BME280;72660;51.258;-2.200;2024-01-10T04:46:17;102141.67;;;-1.02;54.08
82887;BME280;72660;51.258;-2.200;2024-01-10T04:48:47;102140.10;;;-0.94;53.98
82887;BME280;72660;51.258;-2.200;2024-01-10T04:51:07;102147.37;;;-1.37;54.89
82887;BME280;72660;51.258;-2.200;2024-01-10T04:53:32;102149.18;;;-1.92;55.91
82887;BME280;72660;51.258;-2.200;2024-01-10T04:55:58;102150.85;;;-1.43;54.98
82887;BME280;72660;51.258;-2.200;2024-01-10T04:58:23;102147.13;;;-1.63;55.26
82887;BME280;72660;51.258;-2.200;2024-01-10T05:00:49;102137.58;;;-1.06;54.53
82887;BME280;72660;51.258;-2.200;2024-01-10T05:03:14;102147.82;;;-1.58;55.18
82887;BME280;72660;51.258;-2.200;2024-01-10T05:05:40;102145.97;;;-1.48;55.28
82887;BME280;72660;51.258;-2.200;2024-01-10T05:08:06;102140.15;;;-1.00;54.05
82887;BME280;72660;51.258;-2.200;2024-01-10T05:10:31;102137.17;;;-1.48;55.33
82887;BME280;72660;51.258;-2.200;2024-01-10T05:12:57;102136.39;;;-0.89;53.97
82887;BME280;72660;51.258;-2.200;2024-01-10T05:15:22;102135.39;;;-0.97;53.80
82887;BME280;72660;51.258;-2.200;2024-01-10T05:17:48;102133.00;;;-0.55;53.11
82887;BME280;72660;51.258;-2.200;2024-01-10T05:20:14;102132.26;;;-0.74;53.16
82887;BME280;72660;51.258;-2.200;2024-01-10T05:22:40;102136.11;;;-0.62;52.52
82887;BME280;72660;51.258;-2.200;2024-01-10T05:25:05;102136.60;;;-0.78;53.17
82887;BME280;72660;51.258;-2.200;2024-01-10T05:27:30;102129.64;;;-0.78;53.18
82887;BME280;72660;51.258;-2.200;2024-01-10T05:29:56;102129.26;;;-0.59;52.93
82887;BME280;72660;51.258;-2.200;2024-01-10T05:32:22;102129.22;;;-1.03;53.65
82887;BME280;72660;51.258;-2.200;2024-01-10T05:34:47;102134.40;;;-1.57;54.64
82887;BME280;72660;51.258;-2.200;2024-01-10T05:37:13;102135.94;;;-1.32;54.38
82887;BME280;72660;51.258;-2.200;2024-01-10T05:39:38;102137.83;;;-1.48;55.65
82887;BME280;72660;51.258;-2.200;2024-01-10T05:42:04;102142.65;;;-2.25;55.90
82887;BME280;72660;51.258;-2.200;2024-01-10T05:44:29;102144.26;;;-1.76;55.91
82887;BME280;72660;51.258;-2.200;2024-01-10T05:46:55;102145.71;;;-1.37;55.53
82887;BME280;72660;51.258;-2.200;2024-01-10T05:49:20;102146.30;;;-1.72;55.71
82887;BME280;72660;51.258;-2.200;2024-01-10T05:51:46;102140.89;;;-0.88;53.80
82887;BME280;72660;51.258;-2.200;2024-01-10T05:54:12;102138.81;;;-0.77;53.48
82887;BME280;72660;51.258;-2.200;2024-01-10T05:56:37;102136.31;;;-1.01;53.79
82887;BME280;72660;51.258;-2.200;2024-01-10T05:59:03;102140.68;;;-0.73;53.40
82887;BME280;72660;51.258;-2.200;2024-01-10T06:01:28;102140.19;;;-0.75;53.63
82887;BME280;72660;51.258;-2.200;2024-01-10T06:03:54;102144.80;;;-1.26;54.49
82887;BME280;72660;51.258;-2.200;2024-01-10T06:06:20;102144.88;;;-1.32;54.97
82887;BME280;72660;51.258;-2.200;2024-01-10T06:08:45;102146.32;;;-0.82;54.16
82887;BME280;72660;51.258;-2.200;2024-01-10T06:11:11;102151.00;;;-0.60;53.64
82887;BME280;72660;51.258;-2.200;2024-01-10T06:13:36;102158.23;;;-1.45;55.38
82887;BME280;72660;51.258;-2.200;2024-01-10T06:16:02;102154.98;;;-0.93;53.93
82887;BME280;72660;51.258;-2.200;2024-01-10T06:18:27;102155.12;;;-0.14;52.20
82887;BME280;72660;51.258;-2.200;2024-01-10T06:20:53;102164.49;;;-0.19;52.67
82887;BME280;72660;51.258;-2.200;2024-01-10T06:23:19;102164.30;;;-0.99;53.97
82887;BME280;72660;51.258;-2.200;2024-01-10T06:25:44;102168.90;;;-1.43;55.21
82887;BME280;72660;51.258;-2.200;2024-01-10T06:28:10;102166.64;;;0.07;52.40
82887;BME280;72660;51.258;-2.200;2024-01-10T06:30:36;102168.99;;;-0.32;52.16
82887;BME280;72660;51.258;-2.200;2024-01-10T06:33:01;102162.66;;;-0.27;52.37
82887;BME280;72660;51.258;-2.200;2024-01-10T06:35:27;102167.80;;;-0.26;52.81
82887;BME280;72660;51.258;-2.200;2024-01-10T06:37:52;102167.71;;;-0.68;53.32
82887;BME280;72660;51.258;-2.200;2024-01-10T06:40:18;102165.73;;;-0.53;53.10
82887;BME280;72660;51.258;-2.200;2024-01-10T06:42:43;102166.29;;;0.02;52.09
82887;BME280;72660;51.258;-2.200;2024-01-10T06:45:10;102168.45;;;0.09;51.55
82887;BME280;72660;51.258;-2.200;2024-01-10T06:47:35;102166.93;;;0.74;50.65
82887;BME280;72660;51.258;-2.200;2024-01-10T06:50:00;102165.10;;;0.34;50.97
82887;BME280;72660;51.258;-2.200;2024-01-10T06:52:26;102168.64;;;-0.12;51.68
82887;BME280;72660;51.258;-2.200;2024-01-10T06:54:51;102170.53;;;-0.60;52.69
82887;BME280;72660;51.258;-2.200;2024-01-10T06:57:17;102173.27;;;-0.70;53.39
82887;BME280;72660;51.258;-2.200;2024-01-10T06:59:42;102175.35;;;-0.93;54.08
82887;BME280;72660;51.258;-2.200;2024-01-10T07:02:08;102174.25;;;-0.70;53.97
82887;BME280;72660;51.258;-2.200;2024-01-10T07:04:36;102178.07;;;-0.45;53.21
82887;BME280;72660;51.258;-2.200;2024-01-10T07:06:59;102178.46;;;-0.83;54.01
82887;BME280;72660;51.258;-2.200;2024-01-10T07:09:25;102179.86;;;-0.59;53.13
82887;BME280;72660;51.258;-2.200;2024-01-10T07:11:50;102182.46;;;-0.67;53.46
82887;BME280;72660;51.258;-2.200;2024-01-10T07:14:16;102187.36;;;-1.31;55.93
82887;BME280;72660;51.258;-2.200;2024-01-10T07:16:42;102184.30;;;-1.00;55.36
82887;BME280;72660;51.258;-2.200;2024-01-10T07:19:07;102187.47;;;-1.46;56.13
82887;BME280;72660;51.258;-2.200;2024-01-10T07:21:32;102183.73;;;-0.88;55.09
82887;BME280;72660;51.258;-2.200;2024-01-10T07:23:58;102189.46;;;-0.97;55.02
82887;BME280;72660;51.258;-2.200;2024-01-10T07:26:24;102179.08;;;-0.89;54.54
82887;BME280;72660;51.258;-2.200;2024-01-10T07:28:49;102186.89;;;-0.98;54.90
82887;BME280;72660;51.258;-2.200;2024-01-10T07:31:15;102186.14;;;-0.62;53.97
82887;BME280;72660;51.258;-2.200;2024-01-10T07:33:41;102185.21;;;-0.86;54.35
82887;BME280;72660;51.258;-2.200;2024-01-10T07:36:06;102187.48;;;-0.95;54.07
82887;BME280;72660;51.258;-2.200;2024-01-10T07:38:32;102182.51;;;-0.45;53.73
82887;BME280;72660;51.258;-2.200;2024-01-10T07:40:57;102186.64;;;-0.03;52.80
82887;BME280;72660;51.258;-2.200;2024-01-10T07:43:23;102187.79;;;-0.29;53.41
82887;BME280;72660;51.258;-2.200;2024-01-10T07:45:48;102186.98;;;-0.31;53.61
82887;BME280;72660;51.258;-2.200;2024-01-10T07:48:14;102186.30;;;-0.34;53.00
82887;BME280;72660;51.258;-2.200;2024-01-10T07:50:39;102190.02;;;-0.75;54.87
82887;BME280;72660;51.258;-2.200;2024-01-10T07:53:05;102188.25;;;-0.71;54.71
82887;BME280;72660;51.258;-2.200;2024-01-10T07:55:31;102194.19;;;-1.19;55.26
82887;BME280;72660;51.258;-2.200;2024-01-10T07:57:56;102193.93;;;-0.30;53.80
82887;BME280;72660;51.258;-2.200;2024-01-10T08:00:22;102191.42;;;-0.73;55.02
82887;BME280;72660;51.258;-2.200;2024-01-10T08:02:47;102198.79;;;-1.52;56.21
82887;BME280;72660;51.258;-2.200;2024-01-10T08:05:13;102195.32;;;-0.39;54.61
82887;BME280;72660;51.258;-2.200;2024-01-10T08:07:38;102195.81;;;-0.58;54.45
82887;BME280;72660;51.258;-2.200;2024-01-10T08:10:04;102202.43;;;-1.11;55.61
82887;BME280;72660;51.258;-2.200;2024-01-10T08:12:30;102203.63;;;-1.19;56.01
82887;BME280;72660;51.258;-2.200;2024-01-10T08:14:55;102197.03;;;-0.56;54.99
82887;BME280;72660;51.258;-2.200;2024-01-10T08:17:20;102202.78;;;-1.12;55.39
82887;BME280;72660;51.258;-2.200;2024-01-10T08:19:46;102205.59;;;-0.89;55.02
82887;BME280;72660;51.258;-2.200;2024-01-10T08:22:12;102217.66;;;-1.38;56.26
82887;BME280;72660;51.258;-2.200;2024-01-10T08:24:37;102211.83;;;-0.64;55.26
82887;BME280;72660;51.258;-2.200;2024-01-10T08:27:04;102219.85;;;-0.87;55.67
82887;BME280;72660;51.258;-2.200;2024-01-10T08:29:29;102213.72;;;-0.41;54.97
82887;BME280;72660;51.258;-2.200;2024-01-10T08:31:54;102218.81;;;-0.38;54.30
82887;BME280;72660;51.258;-2.200;2024-01-10T08:34:20;102218.42;;;-0.66;54.56
82887;BME280;72660;51.258;-2.200;2024-01-10T08:36:45;102218.57;;;-0.35;54.35
82887;BME280;72660;51.258;-2.200;2024-01-10T08:39:11;102217.06;;;-1.03;55.24
82887;BME280;72660;51.258;-2.200;2024-01-10T08:41:36;102222.22;;;-0.72;55.20
82887;BME280;72660;51.258;-2.200;2024-01-10T08:44:02;102222.78;;;-0.66;54.84
82887;BME280;72660;51.258;-2.200;2024-01-10T08:46:28;102223.70;;;-0.85;55.56
82887;BME280;72660;51.258;-2.200;2024-01-10T08:48:53;102219.75;;;-0.64;55.91
82887;BME280;72660;51.258;-2.200;2024-01-10T08:51:19;102218.52;;;-0.34;55.02
82887;BME280;72660;51.258;-2.200;2024-01-10T08:53:44;102219.13;;;-0.30;55.67
82887;BME280;72660;51.258;-2.200;2024-01-10T08:56:10;102222.26;;;-0.57;56.32
82887;BME280;72660;51.258;-2.200;2024-01-10T08:58:35;102226.28;;;-1.15;56.63
82887;BME280;72660;51.258;-2.200;2024-01-10T09:01:01;102228.73;;;-0.45;55.22
82887;BME280;72660;51.258;-2.200;2024-01-10T09:05:52;102225.60;;;1.97;50.46
82887;BME280;72660;51.258;-2.200;2024-01-10T09:08:18;102223.24;;;1.85;49.36
82887;BME280;72660;51.258;-2.200;2024-01-10T09:10:43;102221.63;;;2.12;48.32
82887;BME280;72660;51.258;-2.200;2024-01-10T09:13:09;102223.26;;;2.32;48.42
82887;BME280;72660;51.258;-2.200;2024-01-10T09:15:34;102227.51;;;0.76;51.63
82887;BME280;72660;51.258;-2.200;2024-01-10T09:17:59;102228.13;;;0.52;52.58
82887;BME280;72660;51.258;-2.200;2024-01-10T09:20:25;102225.13;;;0.47;53.82
82887;BME280;72660;51.258;-2.200;2024-01-10T09:22:50;102221.50;;;0.28;54.32
82887;BME280;72660;51.258;-2.200;2024-01-10T09:25:16;102226.41;;;0.60;54.18
82887;BME280;72660;51.258;-2.200;2024-01-10T09:27:41;102226.26;;;0.12;55.10
82887;BME280;72660;51.258;-2.200;2024-01-10T09:30:08;102222.91;;;-0.07;56.08
82887;BME280;72660;51.258;-2.200;2024-01-10T09:32:32;102223.73;;;-0.03;55.86
82887;BME280;72660;51.258;-2.200;2024-01-10T09:34:58;102227.18;;;-0.02;56.27
82887;BME280;72660;51.258;-2.200;2024-01-10T09:37:23;102232.85;;;-0.07;56.52
82887;BME280;72660;51.258;-2.200;2024-01-10T09:39:49;102237.28;;;-0.22;56.83
82887;BME280;72660;51.258;-2.200;2024-01-10T09:42:14;102238.09;;;-0.46;57.64
82887;BME280;72660;51.258;-2.200;2024-01-10T09:44:40;102238.67;;;-0.35;57.97
82887;BME280;72660;51.258;-2.200;2024-01-10T09:47:05;102243.11;;;-0.08;57.07
82887;BME280;72660;51.258;-2.200;2024-01-10T09:49:31;102243.68;;;0.84;54.99
82887;BME280;72660;51.258;-2.200;2024-01-10T09:51:59;102240.31;;;0.83;54.85
82887;BME280;72660;51.258;-2.200;2024-01-10T09:54:29;102242.10;;;1.58;53.35
82887;BME280;72660;51.258;-2.200;2024-01-10T09:56:48;102243.78;;;0.05;55.49
82887;BME280;72660;51.258;-2.200;2024-01-10T09:59:13;102244.42;;;0.64;55.57
82887;BME280;72660;51.258;-2.200;2024-01-10T10:01:39;102251.76;;;0.66;55.11
82887;BME280;72660;51.258;-2.200;2024-01-10T10:04:05;102251.09;;;1.64;52.98
82887;BME280;72660;51.258;-2.200;2024-01-10T10:06:30;102248.51;;;1.46;52.93
82887;BME280;72660;51.258;-2.200;2024-01-10T10:08:56;102248.49;;;0.91;53.70
82887;BME280;72660;51.258;-2.200;2024-01-10T10:11:21;102246.86;;;1.27;54.01
82887;BME280;72660;51.258;-2.200;2024-01-10T10:13:46;102243.14;;;1.70;53.47
82887;BME280;72660;51.258;-2.200;2024-01-10T10:16:12;102247.67;;;0.71;55.44
82887;BME280;72660;51.258;-2.200;2024-01-10T10:18:37;102250.58;;;0.96;55.32
82887;BME280;72660;51.258;-2.200;2024-01-10T10:21:07;102251.24;;;1.15;54.37
82887;BME280;72660;51.258;-2.200;2024-01-10T10:23:29;102250.23;;;1.72;53.11
82887;BME280;72660;51.258;-2.200;2024-01-10T10:25:54;102245.15;;;1.42;53.91
82887;BME280;72660;51.258;-2.200;2024-01-10T10:28:19;102246.36;;;1.85;52.70
82887;BME280;72660;51.258;-2.200;2024-01-10T10:30:46;102249.47;;;2.42;52.04
82887;BME280;72660;51.258;-2.200;2024-01-10T10:33:11;102252.40;;;0.95;53.54
82887;BME280;72660;51.258;-2.200;2024-01-10T10:35:36;102249.69;;;1.87;52.94
82887;BME280;72660;51.258;-2.200;2024-01-10T10:38:01;102254.38;;;1.08;53.62
82887;BME280;72660;51.258;-2.200;2024-01-10T10:40:27;102249.25;;;0.74;55.01
82887;BME280;72660;51.258;-2.200;2024-01-10T10:42:55;102244.63;;;1.40;53.52
82887;BME280;72660;51.258;-2.200;2024-01-10T10:45:18;102248.22;;;1.32;53.37
82887;BME280;72660;51.258;-2.200;2024-01-10T10:47:44;102251.13;;;1.48;52.96
82887;BME280;72660;51.258;-2.200;2024-01-10T10:50:12;102252.24;;;1.02;53.46
82887;BME280;72660;51.258;-2.200;2024-01-10T10:52:35;102247.53;;;0.75;53.68
82887;BME280;72660;51.258;-2.200;2024-01-10T10:55:00;102251.84;;;0.78;53.33
82887;BME280;72660;51.258;-2.200;2024-01-10T10:57:26;102244.06;;;1.31;53.52
82887;BME280;72660;51.258;-2.200;2024-01-10T10:59:51;102246.11;;;1.45;52.92
82887;BME280;72660;51.258;-2.200;2024-01-10T11:02:20;102247.61;;;0.60;54.73
82887;BME280;72660;51.258;-2.200;2024-01-10T11:04:42;102236.35;;;1.10;53.64
82887;BME280;72660;51.258;-2.200;2024-01-10T11:07:07;102240.86;;;1.91;52.10
82887;BME280;72660;51.258;-2.200;2024-01-10T11:09:33;102245.23;;;1.25;52.70
82887;BME280;72660;51.258;-2.200;2024-01-10T11:12:11;102236.73;;;1.61;52.36
82887;BME280;72660;51.258;-2.200;2024-01-10T11:14:32;102232.53;;;2.06;51.16
82887;BME280;72660;51.258;-2.200;2024-01-10T11:17:02;102230.46;;;1.85;51.49
82887;BME280;72660;51.258;-2.200;2024-01-10T11:21:50;102221.90;;;2.54;50.60
82887;BME280;72660;51.258;-2.200;2024-01-10T11:24:06;102220.79;;;2.11;51.48
82887;BME280;72660;51.258;-2.200;2024-01-10T11:26:32;102222.77;;;2.54;50.37
82887;BME280;72660;51.258;-2.200;2024-01-10T11:28:57;102221.86;;;1.82;51.95
82887;BME280;72660;51.258;-2.200;2024-01-10T11:31:28;102217.32;;;2.35;50.95
82887;BME280;72660;51.258;-2.200;2024-01-10T11:33:48;102218.12;;;2.17;51.21
82887;BME280;72660;51.258;-2.200;2024-01-10T11:36:14;102221.03;;;1.47;52.16
82887;BME280;72660;51.258;-2.200;2024-01-10T11:38:41;102225.93;;;1.29;52.80
82887;BME280;72660;51.258;-2.200;2024-01-10T11:41:04;102221.44;;;2.11;51.60
82887;BME280;72660;51.258;-2.200;2024-01-10T11:43:30;102221.26;;;2.46;50.89
82887;BME280;72660;51.258;-2.200;2024-01-10T11:45:56;102210.59;;;2.02;51.28
82887;BME280;72660;51.258;-2.200;2024-01-10T11:48:26;102217.59;;;2.12;51.20
82887;BME280;72660;51.258;-2.200;2024-01-10T11:50:46;102211.62;;;2.41;50.90
82887;BME280;72660;51.258;-2.200;2024-01-10T11:53:12;102221.08;;;2.40;51.47
82887;BME280;72660;51.258;-2.200;2024-01-10T11:55:49;102210.41;;;2.68;50.82
82887;BME280;72660;51.258;-2.200;2024-01-10T11:58:08;102219.13;;;2.40;51.21
82887;BME280;72660;51.258;-2.200;2024-01-10T12:00:29;102203.79;;;2.53;51.26
82887;BME280;72660;51.258;-2.200;2024-01-10T12:02:54;102196.91;;;1.93;50.91
82887;BME280;72660;51.258;-2.200;2024-01-10T12:05:21;102196.73;;;1.64;52.09
82887;BME280;72660;51.258;-2.200;2024-01-10T12:07:50;102195.04;;;2.02;51.34
82887;BME280;72660;51.258;-2.200;2024-01-10T12:10:10;102192.98;;;2.70;50.18
82887;BME280;72660;51.258;-2.200;2024-01-10T12:12:36;102187.86;;;2.39;50.81
82887;BME280;72660;51.258;-2.200;2024-01-10T12:15:01;102186.53;;;2.54;50.26
82887;BME280;72660;51.258;-2.200;2024-01-10T12:17:28;102184.48;;;3.08;49.27
82887;BME280;72660;51.258;-2.200;2024-01-10T12:19:52;102186.85;;;2.55;49.60
82887;BME280;72660;51.258;-2.200;2024-01-10T12:22:17;102183.98;;;2.50;50.42
82887;BME280;72660;51.258;-2.200;2024-01-10T12:24:44;102180.29;;;3.05;49.27
82887;BME280;72660;51.258;-2.200;2024-01-10T12:27:09;102175.41;;;3.62;47.62
82887;BME280;72660;51.258;-2.200;2024-01-10T12:29:34;102170.00;;;3.76;47.28
82887;BME280;72660;51.258;-2.200;2024-01-10T12:32:00;102172.43;;;3.28;48.05
82887;BME280;72660;51.258;-2.200;2024-01-10T12:34:25;102168.94;;;3.52;47.30
82887;BME280;72660;51.258;-2.200;2024-01-10T12:36:54;102168.38;;;3.34;47.53